Currently 64°F in Riverside (Presidential Park), California, USA
64°F
78°F / 51°F
calm
0.00"
Wednesday, December 2, 2020 7:19 PM PST

Riverside (Presidential Park), California Weather Summary
Last 36 Hours

Temperature Winds Hourly Humidity Dewpoint
Time Report Norm Report Norm Max Gusts Precip. Rpt. Norm Rpt. Norm Pressure
1Wed 07:19 PM  64.0°F  58°F  calm  2 mph  3 mph  0.00"  16%  59%  16°F  43°F  30.11"
Wed 07:00 PM  65.8°F  58°F  calm  2 mph  11 mph  0.00"  15%  58%  15°F  43°F  30.10"
Wed 06:00 PM  68.1°F  60°F  5 mph SE  2 mph  14 mph  0.00"  13%  55%  14°F  43°F  30.07"
Wed 05:00 PM  70.7°F  63°F  10 mph E  3 mph  14 mph  0.00"  13%  49%  15°F  43°F  30.05"
Wed 04:00 PM  73.0°F  66°F  6 mph E  4 mph  17 mph  0.00"  12%  44%  16°F  43°F  30.03"
Wed 03:00 PM  74.5°F  67°F  7 mph SW  4 mph  18 mph  0.00"  12%  43%  16°F  43°F  30.01"
Wed 02:00 PM  77.0°F  67°F  6 mph W  4 mph  11 mph  0.00"  12%  43%  18°F  43°F  30.01"
Wed 01:00 PM  77.5°F  66°F  6 mph SE  4 mph  10 mph  0.00"  10%  43%  15°F  43°F  30.02"
2Wed 12:29 PM  78.5°F  66°F  6 mph E  3 mph  9 mph  ----  11%  44%  16°F  43°F  30.03"
Wed 12:00 PM  75.8°F  65°F  4 mph E  3 mph  10 mph  0.00"  12%  45%  17°F  43°F  30.03"
Wed 11:00 AM  74.2°F  63°F  5 mph E  3 mph  11 mph  0.00"  13%  51%  18°F  43°F  30.06"
Wed 10:00 AM  73.4°F  60°F  4 mph E  3 mph  8 mph  0.00"  14%  57%  19°F  44°F  30.08"
Wed 09:00 AM  71.3°F  57°F  2 mph E  2 mph  7 mph  0.00"  17%  63%  23°F  44°F  30.08"
Wed 08:00 AM  57.0°F  52°F  3 mph E  2 mph  5 mph  0.00"  31%  70%  25°F  42°F  30.07"
Wed 07:00 AM  52.3°F  49°F  calm  1 mph  5 mph  0.00"  36%  72%  25°F  40°F  30.06"
Wed 06:00 AM  53.3°F  49°F  3 mph E  2 mph  6 mph  0.00"  32%  72%  23°F  41°F  30.02"
Wed 05:00 AM  51.6°F  50°F  1 mph SE  1 mph  4 mph  0.00"  35%  73%  23°F  41°F  30.01"
3Wed 04:54 AM  51.3°F  50°F  2 mph SE  1 mph  4 mph  ----  34%  73%  23°F  41°F  30.01"
Wed 04:00 AM  52.2°F  50°F  calm  1 mph  7 mph  0.00"  34%  72%  23°F  41°F  30.01"
Wed 03:00 AM  52.1°F  51°F  1 mph E  1 mph  4 mph  0.00"  35%  72%  24°F  41°F  30.02"
Wed 02:00 AM  57.9°F  51°F  calm  1 mph  5 mph  0.00"  28%  71%  23°F  42°F  30.03"
Wed 01:00 AM  58.8°F  52°F  3 mph E  1 mph  6 mph  0.00"  24%  70%  21°F  42°F  30.03"
Wed 12:00 AM  58.5°F  53°F  2 mph E  1 mph  7 mph  0.00"  23%  69%  19°F  42°F  30.03"
Tue 11:00 PM  60.5°F  53°F  3 mph E  1 mph  8 mph  0.00"  21%  67%  19°F  42°F  30.03"
Tue 10:00 PM  62.0°F  54°F  1 mph E  1 mph  8 mph  0.00"  19%  65%  18°F  42°F  30.03"
Tue 09:00 PM  59.9°F  55°F  3 mph E  2 mph  5 mph  0.00"  23%  63%  21°F  42°F  30.03"
Tue 08:00 PM  59.3°F  56°F  calm  2 mph  5 mph  0.00"  27%  61%  24°F  43°F  30.02"
Tue 07:00 PM  61.5°F  58°F  2 mph SE  2 mph  4 mph  0.00"  27%  58%  26°F  43°F  30.01"
Tue 06:00 PM  67.8°F  60°F  1 mph SE  2 mph  5 mph  0.00"  19%  54%  22°F  43°F  30.01"
Tue 05:00 PM  74.4°F  63°F  3 mph W  3 mph  13 mph  0.00"  12%  49%  16°F  43°F  29.99"
Tue 04:00 PM  77.7°F  66°F  8 mph W  4 mph  16 mph  0.00"  10%  43%  13°F  42°F  29.98"
Tue 03:00 PM  79.3°F  67°F  8 mph W  4 mph  15 mph  0.00"  9%  42%  14°F  42°F  29.98"
Tue 02:00 PM  80.3°F  67°F  5 mph SW  4 mph  11 mph  0.00"  10%  42%  15°F  42°F  29.98"
Tue 01:00 PM  78.8°F  67°F  4 mph NW  4 mph  9 mph  0.00"  10%  42%  15°F  42°F  29.99"
Tue 12:00 PM  77.5°F  65°F  2 mph W  3 mph  11 mph  0.00"  12%  44%  18°F  42°F  30.02"
Tue 11:00 AM  75.2°F  63°F  2 mph E  3 mph  10 mph  0.00"  12%  50%  17°F  43°F  30.04"
Tue 10:00 AM  71.1°F  60°F  5 mph SE  3 mph  8 mph  0.00"  16%  56%  20°F  43°F  30.07"
Tue 09:00 AM  65.5°F  57°F  5 mph SE  2 mph  9 mph  0.00"  26%  63%  28°F  44°F  30.08"
Tue 08:00 AM  48.2°F  51°F  1 mph NE  2 mph  5 mph  0.00"  48%  70%  28°F  41°F  30.09"

  1. Current weather data. No green row appears if the current weather data is also the high or low for the current day.
  2. High temperature for the current day.
  3. Low temperature for the current day.

The Riverside (Presidential Park), California weather pages are a service of WeatherCurrents.
Copyright ©2020  WeatherCurrents. All rights reserved. - Submit questions and comments - Privacy Policy

This page automatically refreshes every 10 minutes.